Time;durP1;ratioP1;P1;durP2;ratioP2;P2;SDS_P1;SDS_P2;PMS_P1;PMS_P2;Temp;Humidity;BMP_temperature;BMP_pressure;BME280_temperature;BME280_humidity;BME280_pressure;Samples;Min_cycle;Max_cycle;Signal;HPM_P1;HPM_P2
2024/01/29 00:00:24;;;;;;;3.93;2.60;;;;;;;;;;4981429;28;20224;-79
2024/01/29 00:02:50;;;;;;;4.00;2.80;;;;;;;;;;5016715;28;20230;-79
2024/01/29 00:05:20;;;;;;;4.30;2.53;;;;;;;;;;5008508;28;20212;-78
2024/01/29 00:07:46;;;;;;;2.40;2.17;;;;;;;;;;4977265;28;20243;-77
2024/01/29 00:10:12;;;;;;;2.90;2.37;;;;;;;;;;4997073;28;20225;-76
2024/01/29 00:12:38;;;;;;;6.40;2.93;;;;;;;;;;5017720;28;20225;-78
2024/01/29 00:15:06;;;;;;;3.43;2.40;;;;;;;;;;5009856;28;20274;-77
2024/01/29 00:17:34;;;;;;;3.33;2.50;;;;;;;;;;4998345;28;20612;-78
2024/01/29 00:19:59;;;;;;;4.10;2.50;;;;;;;;;;4980016;28;20264;-78
2024/01/29 00:22:25;;;;;;;6.40;2.90;;;;;;;;;;4978097;28;20229;-78
2024/01/29 00:24:50;;;;;;;4.03;2.50;;;;;;;;;;5024620;28;20238;-78
2024/01/29 00:27:18;;;;;;;4.67;2.20;;;;;;;;;;4998971;28;20590;-78
2024/01/29 00:29:48;;;;;;;3.40;2.30;;;;;;;;;;5011957;28;20217;-78
2024/01/29 00:32:14;;;;;;;3.37;2.47;;;;;;;;;;4973904;28;20943;-77
2024/01/29 00:34:42;;;;;;;3.90;2.20;;;;;;;;;;5007929;28;20225;-78
2024/01/29 00:37:08;;;;;;;3.57;2.00;;;;;;;;;;4992836;28;20231;-76
2024/01/29 00:39:36;;;;;;;3.30;2.20;;;;;;;;;;5001154;28;20283;-77
2024/01/29 00:42:02;;;;;;;3.23;2.27;;;;;;;;;;5015663;28;20238;-79
2024/01/29 00:44:29;;;;;;;2.40;2.00;;;;;;;;;;4991454;28;20211;-78
2024/01/29 00:47:00;;;;;;;3.47;2.40;;;;;;;;;;4978648;28;20228;-78
2024/01/29 00:49:25;;;;;;;1.93;1.70;;;;;;;;;;4997174;28;20281;-78
2024/01/29 00:51:51;;;;;;;4.13;2.00;;;;;;;;;;4997344;28;20220;-78
2024/01/29 00:54:18;;;;;;;3.37;2.20;;;;;;;;;;5003614;28;20225;-78
2024/01/29 00:56:43;;;;;;;3.10;2.10;;;;;;;;;;5022292;28;20212;-78
2024/01/29 00:59:11;;;;;;;2.77;2.13;;;;;;;;;;5007408;28;20270;-77
2024/01/29 01:01:36;;;;;;;3.87;2.03;;;;;;;;;;5023626;28;20222;-77
2024/01/29 01:04:02;;;;;;;2.60;2.10;;;;;;;;;;4993399;28;20228;-78
2024/01/29 01:06:30;;;;;;;2.30;2.00;;;;;;;;;;5008489;28;20219;-78
2024/01/29 01:08:55;;;;;;;2.97;1.80;;;;;;;;;;5012086;28;20235;-77
2024/01/29 01:11:25;;;;;;;4.37;2.20;;;;;;;;;;5003078;28;20224;-78
2024/01/29 01:13:53;;;;;;;2.90;1.87;;;;;;;;;;5022676;28;20255;-78
2024/01/29 01:16:18;;;;;;;2.67;1.80;;;;;;;;;;4982474;28;20239;-77
2024/01/29 01:18:44;;;;;;;3.80;2.10;;;;;;;;;;4991461;28;20225;-77
2024/01/29 01:21:09;;;;;;;3.60;1.93;;;;;;;;;;5011904;28;20229;-77
2024/01/29 01:23:35;;;;;;;3.57;1.90;;;;;;;;;;5018240;28;20251;-78
2024/01/29 01:26:00;;;;;;;3.17;2.00;;;;;;;;;;4983258;28;20221;-77
2024/01/29 01:28:29;;;;;;;3.73;1.80;;;;;;;;;;5009437;28;20628;-77
2024/01/29 01:30:54;;;;;;;2.97;1.70;;;;;;;;;;5019761;28;20604;-78
2024/01/29 01:33:20;;;;;;;3.20;1.73;;;;;;;;;;4994325;28;20223;-76
2024/01/29 01:35:50;;;;;;;3.10;2.00;;;;;;;;;;4995024;28;20209;-77
2024/01/29 01:38:18;;;;;;;3.80;1.83;;;;;;;;;;5002206;28;20228;-76
2024/01/29 01:40:43;;;;;;;3.03;1.80;;;;;;;;;;4994426;28;20270;-77
2024/01/29 01:43:23;;;;;;;3.93;1.93;;;;;;;;;;4996034;28;20812;-79
2024/01/29 01:46:19;;;;;;;3.60;1.77;;;;;;;;;;4989156;28;20660;-80
2024/01/29 01:48:45;;;;;;;2.23;1.80;;;;;;;;;;5003535;28;20228;-77
2024/01/29 01:51:10;;;;;;;2.80;1.83;;;;;;;;;;4996963;28;20227;-77
2024/01/29 01:53:38;;;;;;;4.47;1.80;;;;;;;;;;4998229;28;20216;-77
2024/01/29 01:56:06;;;;;;;2.43;1.80;;;;;;;;;;4976938;28;20342;-78
2024/01/29 01:58:40;;;;;;;1.83;1.50;;;;;;;;;;4995210;28;20243;-79
2024/01/29 02:01:08;;;;;;;3.23;1.73;;;;;;;;;;4991576;28;20243;-77
2024/01/29 02:03:33;;;;;;;3.20;1.83;;;;;;;;;;4982254;28;20499;-78
2024/01/29 02:05:59;;;;;;;2.83;1.73;;;;;;;;;;5012932;28;20225;-78
2024/01/29 02:08:24;;;;;;;2.37;1.50;;;;;;;;;;4991557;28;20224;-79
2024/01/29 02:10:54;;;;;;;2.03;1.63;;;;;;;;;;4998318;28;20228;-77
2024/01/29 02:13:22;;;;;;;2.83;1.80;;;;;;;;;;4980262;28;20315;-78
2024/01/29 02:15:50;;;;;;;2.23;1.70;;;;;;;;;;5008055;28;20232;-78
2024/01/29 02:18:15;;;;;;;2.67;1.90;;;;;;;;;;4998363;28;20228;-76
2024/01/29 02:20:43;;;;;;;3.30;1.90;;;;;;;;;;5008166;28;20240;-78
2024/01/29 02:23:11;;;;;;;2.53;1.93;;;;;;;;;;5007786;28;20785;-78
2024/01/29 02:25:37;;;;;;;1.63;1.53;;;;;;;;;;4997986;28;20226;-78
2024/01/29 02:28:05;;;;;;;1.93;1.70;;;;;;;;;;5000685;28;20225;-76
2024/01/29 02:30:31;;;;;;;2.30;1.80;;;;;;;;;;5016571;28;20228;-77
2024/01/29 02:32:56;;;;;;;2.57;1.80;;;;;;;;;;5024247;28;20231;-78
2024/01/29 02:35:24;;;;;;;2.60;1.80;;;;;;;;;;5025298;28;20228;-78
2024/01/29 02:37:49;;;;;;;4.20;1.90;;;;;;;;;;5012632;28;20217;-78
2024/01/29 02:40:15;;;;;;;2.57;1.70;;;;;;;;;;4993959;28;20223;-77
2024/01/29 02:42:43;;;;;;;2.97;1.80;;;;;;;;;;5002533;28;20216;-78
2024/01/29 02:45:11;;;;;;;2.53;1.97;;;;;;;;;;4971911;28;20230;-77
2024/01/29 02:47:36;;;;;;;2.03;1.67;;;;;;;;;;4969500;28;20312;-78
2024/01/29 02:50:02;;;;;;;2.30;1.80;;;;;;;;;;4992776;28;20228;-77
2024/01/29 02:52:30;;;;;;;2.73;1.90;;;;;;;;;;5023040;28;20239;-78
2024/01/29 02:54:55;;;;;;;4.27;1.63;;;;;;;;;;4999626;28;20229;-77
2024/01/29 02:57:23;;;;;;;2.70;1.70;;;;;;;;;;4988970;28;20255;-77
2024/01/29 02:59:52;;;;;;;2.37;2.00;;;;;;;;;;4994145;28;20327;-76
2024/01/29 03:02:18;;;;;;;3.07;1.80;;;;;;;;;;4977102;28;20861;-78
2024/01/29 03:04:43;;;;;;;2.87;1.73;;;;;;;;;;4985930;28;20224;-78
2024/01/29 03:07:11;;;;;;;3.83;1.67;;;;;;;;;;4995107;28;20231;-76
2024/01/29 03:09:36;;;;;;;3.10;1.80;;;;;;;;;;5018068;28;20232;-76
2024/01/29 03:12:04;;;;;;;2.27;1.80;;;;;;;;;;5008677;28;20221;-77
2024/01/29 03:14:30;;;;;;;1.80;1.57;;;;;;;;;;5011269;28;20258;-78
2024/01/29 03:16:56;;;;;;;1.77;1.63;;;;;;;;;;4979460;28;20224;-75
2024/01/29 03:19:21;;;;;;;3.40;2.00;;;;;;;;;;5004071;28;20235;-77
2024/01/29 03:21:49;;;;;;;2.53;1.80;;;;;;;;;;4992638;28;20216;-79
2024/01/29 03:24:19;;;;;;;3.27;2.10;;;;;;;;;;5003655;28;20222;-79
2024/01/29 03:26:45;;;;;;;2.60;1.67;;;;;;;;;;5008717;28;20223;-77
2024/01/29 03:29:13;;;;;;;3.63;1.90;;;;;;;;;;5005523;28;20216;-78
2024/01/29 03:31:41;;;;;;;3.73;1.90;;;;;;;;;;5000136;28;20227;-78
2024/01/29 03:34:06;;;;;;;2.13;1.83;;;;;;;;;;4990883;28;20319;-78
2024/01/29 03:36:34;;;;;;;4.37;1.80;;;;;;;;;;4988757;28;20304;-78
2024/01/29 03:39:03;;;;;;;2.80;1.87;;;;;;;;;;5021572;28;20235;-78
2024/01/29 03:41:28;;;;;;;2.20;1.60;;;;;;;;;;5001832;28;20308;-78
2024/01/29 03:43:56;;;;;;;2.97;1.90;;;;;;;;;;4991514;28;20252;-78
2024/01/29 03:46:25;;;;;;;3.17;2.00;;;;;;;;;;5000628;28;20216;-77
2024/01/29 03:48:55;;;;;;;3.53;1.90;;;;;;;;;;5016702;28;20245;-79
2024/01/29 03:51:25;;;;;;;2.77;1.80;;;;;;;;;;4976501;28;20241;-79
2024/01/29 03:53:53;;;;;;;4.30;2.10;;;;;;;;;;5004368;28;20225;-79
2024/01/29 03:56:18;;;;;;;2.57;1.90;;;;;;;;;;4997611;28;20223;-78
2024/01/29 04:02:31;;;;;;;2.37;1.80;;;;;;;;;;5020619;28;20270;-79
2024/01/29 04:04:59;;;;;;;3.73;1.90;;;;;;;;;;5001733;28;20461;-77
2024/01/29 04:07:27;;;;;;;3.87;1.90;;;;;;;;;;5016618;28;20216;-78
2024/01/29 04:09:54;;;;;;;1.70;1.60;;;;;;;;;;4991881;28;20229;-79
2024/01/29 04:12:20;;;;;;;2.30;1.80;;;;;;;;;;4969392;28;20237;-79
2024/01/29 04:14:48;;;;;;;2.40;1.80;;;;;;;;;;4990394;28;20216;-78
2024/01/29 04:17:16;;;;;;;2.07;1.80;;;;;;;;;;4984651;28;20601;-78
2024/01/29 04:19:44;;;;;;;2.17;1.97;;;;;;;;;;5005492;28;20221;-78
2024/01/29 04:22:12;;;;;;;2.23;1.60;;;;;;;;;;4988461;28;20224;-78
2024/01/29 04:24:37;;;;;;;3.87;2.73;;;;;;;;;;5014183;28;20278;-78
2024/01/29 04:27:03;;;;;;;3.33;2.63;;;;;;;;;;5002664;28;20691;-78
2024/01/29 04:29:30;;;;;;;1.70;1.60;;;;;;;;;;5019124;28;20252;-77
2024/01/29 04:31:56;;;;;;;2.80;1.80;;;;;;;;;;4976351;28;20267;-77
2024/01/29 04:34:21;;;;;;;3.27;2.13;;;;;;;;;;5005674;28;20227;-79
2024/01/29 04:36:47;;;;;;;3.63;2.40;;;;;;;;;;5010786;28;20230;-79
2024/01/29 04:39:18;;;;;;;3.53;2.30;;;;;;;;;;5007460;28;20264;-79
2024/01/29 04:41:43;;;;;;;3.60;2.50;;;;;;;;;;5022827;28;20283;-79
2024/01/29 04:44:09;;;;;;;3.90;2.00;;;;;;;;;;4994530;28;20221;-79
2024/01/29 04:46:37;;;;;;;2.80;1.87;;;;;;;;;;4998704;28;20223;-77
2024/01/29 04:49:02;;;;;;;3.67;2.00;;;;;;;;;;5025016;28;20742;-79
2024/01/29 04:51:28;;;;;;;4.60;1.80;;;;;;;;;;4990972;28;20224;-79
2024/01/29 04:53:56;;;;;;;2.47;1.70;;;;;;;;;;4997269;28;20216;-77
2024/01/29 04:56:21;;;;;;;2.63;1.80;;;;;;;;;;5009863;28;20230;-77
2024/01/29 04:58:47;;;;;;;2.90;1.73;;;;;;;;;;5023830;28;20271;-77
2024/01/29 05:01:14;;;;;;;2.43;1.77;;;;;;;;;;5015440;28;20788;-76
2024/01/29 05:03:43;;;;;;;2.47;1.43;;;;;;;;;;5017857;28;20288;-77
2024/01/29 05:06:10;;;;;;;3.43;1.50;;;;;;;;;;5000268;28;20244;-77
2024/01/29 05:08:38;;;;;;;2.37;1.70;;;;;;;;;;5016846;28;20290;-76
2024/01/29 05:11:06;;;;;;;3.20;1.90;;;;;;;;;;5035131;28;20224;-76
2024/01/29 05:13:34;;;;;;;1.67;1.50;;;;;;;;;;5004597;28;20247;-76
2024/01/29 05:16:06;;;;;;;3.70;2.10;;;;;;;;;;4999560;28;20227;-77
2024/01/29 05:18:33;;;;;;;3.47;2.17;;;;;;;;;;4988499;28;20288;-75
2024/01/29 05:20:59;;;;;;;4.53;2.40;;;;;;;;;;4970284;28;20228;-78
2024/01/29 05:23:25;;;;;;;2.60;1.63;;;;;;;;;;4980445;28;20227;-78
2024/01/29 05:25:52;;;;;;;4.20;2.00;;;;;;;;;;5021588;28;20602;-77
2024/01/29 05:28:18;;;;;;;2.20;1.60;;;;;;;;;;4979495;28;20586;-76
2024/01/29 05:30:46;;;;;;;2.67;1.90;;;;;;;;;;5003878;28;20229;-77
2024/01/29 05:33:14;;;;;;;2.20;1.60;;;;;;;;;;4996432;28;20270;-78
2024/01/29 05:35:39;;;;;;;3.57;2.23;;;;;;;;;;4992879;28;20692;-78
2024/01/29 05:38:05;;;;;;;5.80;3.30;;;;;;;;;;4977834;28;20228;-77
2024/01/29 05:40:30;;;;;;;5.23;3.03;;;;;;;;;;4995422;28;20224;-79
2024/01/29 05:42:58;;;;;;;8.27;4.33;;;;;;;;;;4995480;28;20220;-77
2024/01/29 05:45:25;;;;;;;5.07;2.50;;;;;;;;;;5011423;28;20749;-78
2024/01/29 05:47:51;;;;;;;3.30;2.13;;;;;;;;;;4981688;28;20301;-77
2024/01/29 05:50:16;;;;;;;5.60;1.97;;;;;;;;;;5022099;28;20267;-78
2024/01/29 05:52:44;;;;;;;3.90;1.87;;;;;;;;;;4996233;28;20614;-78
2024/01/29 05:55:10;;;;;;;4.53;1.77;;;;;;;;;;4986778;28;20246;-78
2024/01/29 05:57:38;;;;;;;2.37;1.50;;;;;;;;;;4998774;28;20224;-78
2024/01/29 06:00:09;;;;;;;2.00;1.63;;;;;;;;;;4986193;28;20295;-78
2024/01/29 06:02:42;;;;;;;3.73;1.97;;;;;;;;;;5012058;28;20915;-78
2024/01/29 06:05:12;;;;;;;3.30;2.07;;;;;;;;;;4995043;28;20224;-78
2024/01/29 06:07:40;;;;;;;5.90;3.27;;;;;;;;;;5019665;28;20262;-78
2024/01/29 06:10:07;;;;;;;5.13;4.00;;;;;;;;;;4988568;28;20247;-78
2024/01/29 06:12:35;;;;;;;6.07;3.70;;;;;;;;;;4970219;28;20234;-78
2024/01/29 06:15:04;;;;;;;3.97;2.80;;;;;;;;;;5005099;28;20314;-78
2024/01/29 06:17:30;;;;;;;4.10;2.07;;;;;;;;;;5012313;28;20235;-77
2024/01/29 06:19:55;;;;;;;3.93;2.13;;;;;;;;;;4994750;28;20240;-78
2024/01/29 06:22:21;;;;;;;4.90;1.90;;;;;;;;;;5005294;28;20221;-78
2024/01/29 06:24:46;;;;;;;6.43;2.23;;;;;;;;;;4994940;28;20243;-79
2024/01/29 06:27:12;;;;;;;3.20;2.10;;;;;;;;;;4983692;28;20221;-77
2024/01/29 06:29:37;;;;;;;2.17;1.67;;;;;;;;;;4996001;28;20234;-78
2024/01/29 06:32:03;;;;;;;2.67;1.90;;;;;;;;;;5023052;28;20231;-78
2024/01/29 06:34:33;;;;;;;2.43;1.70;;;;;;;;;;5022436;28;20228;-77
2024/01/29 06:37:01;;;;;;;3.67;1.97;;;;;;;;;;4977951;28;20224;-78
2024/01/29 06:39:27;;;;;;;2.83;2.00;;;;;;;;;;4992114;28;20274;-78
2024/01/29 06:41:55;;;;;;;4.30;1.97;;;;;;;;;;4996444;28;20221;-78
2024/01/29 06:44:22;;;;;;;2.73;2.07;;;;;;;;;;4986575;28;20221;-78
2024/01/29 06:46:50;;;;;;;2.63;1.87;;;;;;;;;;5009100;28;20307;-77
2024/01/29 06:49:26;;;;;;;2.27;1.90;;;;;;;;;;4996055;28;20669;-77
2024/01/29 06:51:52;;;;;;;3.40;2.03;;;;;;;;;;4994584;28;20235;-77
2024/01/29 06:54:20;;;;;;;3.63;1.83;;;;;;;;;;5023174;28;20213;-78
2024/01/29 06:56:46;;;;;;;5.20;1.87;;;;;;;;;;4976678;28;20213;-78
2024/01/29 06:59:14;;;;;;;4.33;2.00;;;;;;;;;;4990348;28;20224;-79
2024/01/29 07:01:42;;;;;;;3.50;1.70;;;;;;;;;;4993815;28;20232;-77
2024/01/29 07:04:08;;;;;;;2.17;1.70;;;;;;;;;;4993054;28;20216;-78
2024/01/29 07:06:35;;;;;;;2.60;2.00;;;;;;;;;;4983744;28;20219;-78
2024/01/29 07:09:01;;;;;;;4.80;1.87;;;;;;;;;;4990721;28;20228;-78
2024/01/29 07:11:27;;;;;;;1.70;1.60;;;;;;;;;;4992848;28;20379;-77
2024/01/29 07:13:55;;;;;;;2.27;1.80;;;;;;;;;;5010295;28;20237;-77
2024/01/29 07:16:20;;;;;;;4.70;2.20;;;;;;;;;;5003544;28;20736;-78
2024/01/29 07:18:46;;;;;;;2.67;2.10;;;;;;;;;;5000267;28;20236;-78
2024/01/29 07:21:11;;;;;;;2.43;1.80;;;;;;;;;;5009680;28;20228;-78
2024/01/29 07:23:37;;;;;;;5.60;2.30;;;;;;;;;;4998433;28;20894;-76
2024/01/29 07:26:03;;;;;;;2.57;2.20;;;;;;;;;;4984919;28;20995;-77
2024/01/29 07:28:31;;;;;;;3.63;1.87;;;;;;;;;;4998668;28;20224;-77
2024/01/29 07:31:01;;;;;;;3.10;1.90;;;;;;;;;;4972675;28;20209;-77
2024/01/29 07:33:27;;;;;;;4.43;2.30;;;;;;;;;;5001438;28;20251;-76
2024/01/29 07:35:52;;;;;;;2.77;2.37;;;;;;;;;;5007676;28;20837;-77
2024/01/29 07:38:18;;;;;;;3.87;2.30;;;;;;;;;;4973713;28;20216;-77
2024/01/29 07:40:46;;;;;;;3.50;2.00;;;;;;;;;;5021184;28;20246;-77
2024/01/29 07:43:11;;;;;;;4.53;2.17;;;;;;;;;;5027537;28;20223;-76
2024/01/29 07:45:37;;;;;;;3.77;2.50;;;;;;;;;;5003691;28;20578;-78
2024/01/29 07:48:05;;;;;;;3.13;2.43;;;;;;;;;;5002440;28;20230;-77
2024/01/29 07:50:32;;;;;;;3.43;2.30;;;;;;;;;;5003141;28;20244;-78
2024/01/29 07:52:58;;;;;;;2.43;1.90;;;;;;;;;;4977710;28;20586;-77
2024/01/29 07:55:23;;;;;;;3.53;1.90;;;;;;;;;;4985629;28;20230;-78
2024/01/29 07:57:49;;;;;;;2.90;2.13;;;;;;;;;;5010894;28;20229;-77
2024/01/29 08:00:14;;;;;;;2.53;2.10;;;;;;;;;;5014739;28;20274;-78
2024/01/29 08:02:40;;;;;;;2.87;2.07;;;;;;;;;;4986140;28;20236;-78
2024/01/29 08:05:06;;;;;;;3.33;1.97;;;;;;;;;;5014077;28;20232;-79
2024/01/29 08:07:34;;;;;;;3.10;2.60;;;;;;;;;;4972905;28;20626;-78
2024/01/29 08:10:03;;;;;;;3.27;2.77;;;;;;;;;;5007210;28;20235;-77
2024/01/29 08:12:34;;;;;;;2.70;2.00;;;;;;;;;;5005468;28;20242;-78
2024/01/29 08:14:59;;;;;;;4.20;1.80;;;;;;;;;;4997012;28;20648;-77
2024/01/29 08:17:27;;;;;;;3.27;1.90;;;;;;;;;;4986155;28;20220;-78
2024/01/29 08:19:54;;;;;;;3.80;1.90;;;;;;;;;;4986553;28;20229;-78
2024/01/29 08:22:22;;;;;;;2.57;1.70;;;;;;;;;;4980047;28;20280;-77
2024/01/29 08:24:50;;;;;;;3.37;2.13;;;;;;;;;;5006982;28;20227;-77
2024/01/29 08:27:16;;;;;;;2.30;2.00;;;;;;;;;;4973571;28;20224;-77
2024/01/29 08:29:46;;;;;;;2.77;1.97;;;;;;;;;;4995242;28;20300;-77
2024/01/29 08:32:12;;;;;;;2.10;1.83;;;;;;;;;;5001439;28;20247;-77
2024/01/29 08:34:40;;;;;;;2.63;1.93;;;;;;;;;;5003795;28;20221;-78
2024/01/29 08:37:05;;;;;;;7.00;5.67;;;;;;;;;;4974668;28;20231;-77
2024/01/29 08:39:32;;;;;;;4.20;2.87;;;;;;;;;;5015377;28;20228;-78
2024/01/29 08:41:59;;;;;;;4.97;3.07;;;;;;;;;;5004303;28;20233;-79
2024/01/29 08:44:34;;;;;;;3.77;2.30;;;;;;;;;;5022363;28;20315;-77
2024/01/29 08:47:03;;;;;;;5.73;2.67;;;;;;;;;;5023635;28;20224;-78
2024/01/29 08:49:28;;;;;;;5.90;4.53;;;;;;;;;;4994154;28;20299;-77
2024/01/29 08:51:56;;;;;;;10.83;8.23;;;;;;;;;;4988051;28;20229;-77
2024/01/29 08:54:22;;;;;;;17.80;11.00;;;;;;;;;;5000650;28;20612;-79
2024/01/29 08:56:48;;;;;;;6.43;5.30;;;;;;;;;;5017594;28;20228;-79
2024/01/29 08:59:15;;;;;;;5.17;3.30;;;;;;;;;;5003827;28;20663;-79
2024/01/29 09:01:43;;;;;;;27.37;13.97;;;;;;;;;;5005374;28;20256;-78
2024/01/29 09:04:11;;;;;;;17.17;8.57;;;;;;;;;;5016050;28;20232;-77
2024/01/29 09:06:36;;;;;;;6.43;4.63;;;;;;;;;;4978971;28;20225;-77
2024/01/29 09:09:04;;;;;;;14.97;7.23;;;;;;;;;;4999585;28;20641;-79
2024/01/29 09:11:32;;;;;;;10.23;6.17;;;;;;;;;;5026010;28;20600;-78
2024/01/29 09:13:58;;;;;;;7.63;5.40;;;;;;;;;;4999293;28;20227;-78
2024/01/29 09:16:24;;;;;;;8.20;4.70;;;;;;;;;;5010733;28;20627;-79
2024/01/29 09:18:49;;;;;;;8.70;3.77;;;;;;;;;;5004600;28;20229;-77
2024/01/29 09:21:15;;;;;;;14.33;7.90;;;;;;;;;;5013490;28;20280;-77
2024/01/29 09:23:40;;;;;;;12.83;6.47;;;;;;;;;;5004094;28;20242;-76
2024/01/29 09:26:08;;;;;;;8.37;4.87;;;;;;;;;;5010839;28;20228;-77
2024/01/29 09:28:34;;;;;;;13.93;5.37;;;;;;;;;;5008528;28;20452;-76
2024/01/29 09:31:02;;;;;;;7.43;4.83;;;;;;;;;;4995493;28;20301;-77
2024/01/29 09:33:28;;;;;;;7.30;3.67;;;;;;;;;;4987403;28;20271;-77
2024/01/29 09:35:55;;;;;;;3.50;2.50;;;;;;;;;;5002413;28;20314;-77
2024/01/29 09:38:26;;;;;;;3.80;2.40;;;;;;;;;;4995921;28;20235;-77
2024/01/29 09:40:51;;;;;;;5.70;2.80;;;;;;;;;;4976791;28;20397;-77
2024/01/29 09:43:20;;;;;;;3.43;2.40;;;;;;;;;;4976689;28;21515;-77
2024/01/29 09:45:50;;;;;;;4.00;2.70;;;;;;;;;;4965391;28;20270;-76
2024/01/29 09:48:16;;;;;;;5.47;2.67;;;;;;;;;;5007078;28;20669;-79
2024/01/29 09:50:42;;;;;;;4.57;2.00;;;;;;;;;;5000729;28;20250;-78
2024/01/29 09:53:16;;;;;;;4.07;2.67;;;;;;;;;;4999051;28;20239;-78
2024/01/29 09:55:44;;;;;;;7.00;4.60;;;;;;;;;;4997095;28;20219;-80
2024/01/29 09:58:12;;;;;;;8.83;7.43;;;;;;;;;;5011521;28;20248;-79
2024/01/29 10:00:39;;;;;;;23.20;14.53;;;;;;;;;;5018947;28;20323;-77
2024/01/29 10:03:07;;;;;;;25.43;15.63;;;;;;;;;;4992391;28;20633;-76
2024/01/29 10:05:35;;;;;;;11.50;7.27;;;;;;;;;;4994203;28;20765;-77
2024/01/29 10:08:03;;;;;;;4.70;3.50;;;;;;;;;;4985897;28;20277;-76
2024/01/29 10:10:31;;;;;;;5.47;4.13;;;;;;;;;;4982377;28;20283;-78
2024/01/29 10:13:08;;;;;;;5.23;3.47;;;;;;;;;;4978657;28;20233;-78
2024/01/29 10:15:36;;;;;;;2.77;2.40;;;;;;;;;;4968181;28;20221;-78
2024/01/29 10:18:11;;;;;;;3.53;2.37;;;;;;;;;;4989454;28;20220;-78
2024/01/29 10:20:36;;;;;;;4.43;3.10;;;;;;;;;;4987972;28;20225;-78
2024/01/29 10:23:02;;;;;;;4.00;2.60;;;;;;;;;;5008080;28;20228;-78
2024/01/29 10:25:29;;;;;;;18.43;12.43;;;;;;;;;;4999264;28;20224;-75
2024/01/29 10:28:26;;;;;;;10.43;7.97;;;;;;;;;;4993094;28;20247;-77
2024/01/29 10:30:52;;;;;;;5.10;4.10;;;;;;;;;;4983862;28;20240;-78
2024/01/29 10:33:21;;;;;;;3.60;3.10;;;;;;;;;;4989945;28;20216;-77
2024/01/29 10:35:47;;;;;;;4.33;3.90;;;;;;;;;;4977816;28;20819;-78
2024/01/29 10:38:13;;;;;;;2.83;2.30;;;;;;;;;;4993404;28;20220;-78
2024/01/29 10:40:39;;;;;;;1.97;1.70;;;;;;;;;;4994051;28;20228;-77
2024/01/29 10:43:09;;;;;;;1.97;1.60;;;;;;;;;;4992673;28;20235;-77
2024/01/29 10:45:39;;;;;;;2.33;1.50;;;;;;;;;;4984126;28;20228;-77
2024/01/29 10:48:18;;;;;;;2.40;1.40;;;;;;;;;;4975603;28;20227;-78
2024/01/29 10:50:46;;;;;;;2.73;1.70;;;;;;;;;;4987258;28;20228;-78
2024/01/29 10:53:17;;;;;;;2.10;1.53;;;;;;;;;;4989878;28;20226;-78
2024/01/29 10:55:50;;;;;;;2.17;1.63;;;;;;;;;;4968656;28;20224;-77
2024/01/29 10:58:16;;;;;;;1.90;1.40;;;;;;;;;;5000855;28;20247;-78
2024/01/29 11:00:43;;;;;;;3.30;1.80;;;;;;;;;;5019603;28;20220;-78
2024/01/29 11:03:13;;;;;;;2.17;1.70;;;;;;;;;;5006173;28;20224;-78
2024/01/29 11:05:40;;;;;;;1.93;1.83;;;;;;;;;;4988461;28;20255;-77
2024/01/29 11:08:14;;;;;;;3.10;2.70;;;;;;;;;;4979795;28;20216;-76
2024/01/29 11:10:41;;;;;;;5.03;3.73;;;;;;;;;;5003880;28;20257;-78
2024/01/29 11:13:07;;;;;;;3.73;2.60;;;;;;;;;;5001444;28;20228;-76
2024/01/29 11:15:33;;;;;;;4.07;2.63;;;;;;;;;;5011015;28;20884;-77
2024/01/29 11:18:01;;;;;;;2.93;2.07;;;;;;;;;;4999378;28;20216;-77
2024/01/29 11:20:26;;;;;;;1.93;1.40;;;;;;;;;;4982707;28;20220;-77
2024/01/29 11:22:58;;;;;;;2.20;2.00;;;;;;;;;;4988075;28;20231;-78
2024/01/29 11:25:25;;;;;;;10.83;7.57;;;;;;;;;;4984243;28;20232;-77
2024/01/29 11:27:52;;;;;;;2.90;1.30;;;;;;;;;;4986167;28;20220;-77
2024/01/29 11:30:28;;;;;;;1.93;1.43;;;;;;;;;;5005347;28;20663;-77
2024/01/29 11:33:16;;;;;;;2.60;1.40;;;;;;;;;;5001373;28;20227;-78
2024/01/29 11:35:42;;;;;;;2.63;1.97;;;;;;;;;;5005351;28;20220;-77
2024/01/29 11:38:08;;;;;;;3.57;1.93;;;;;;;;;;4990671;28;20219;-77
2024/01/29 11:40:43;;;;;;;2.50;1.33;;;;;;;;;;4991390;28;20220;-78
2024/01/29 11:43:11;;;;;;;1.80;1.57;;;;;;;;;;5024558;28;20231;-77
2024/01/29 11:45:37;;;;;;;3.20;2.50;;;;;;;;;;5016528;28;20219;-77
2024/01/29 11:48:09;;;;;;;3.97;2.53;;;;;;;;;;5017300;28;20228;-77
2024/01/29 11:50:43;;;;;;;14.37;8.53;;;;;;;;;;4980943;28;20216;-77
2024/01/29 11:53:12;;;;;;;3.03;1.63;;;;;;;;;;5009882;28;20232;-77
2024/01/29 11:55:38;;;;;;;2.90;2.10;;;;;;;;;;4992785;28;20236;-77
2024/01/29 11:58:06;;;;;;;2.23;1.60;;;;;;;;;;4983390;28;20216;-77
2024/01/29 12:00:31;;;;;;;2.73;1.50;;;;;;;;;;4996307;28;20232;-77
2024/01/29 12:02:57;;;;;;;2.33;1.50;;;;;;;;;;5025199;28;20288;-77
2024/01/29 12:05:24;;;;;;;1.67;1.40;;;;;;;;;;5005243;28;20224;-78
2024/01/29 12:07:52;;;;;;;2.60;1.80;;;;;;;;;;5010634;28;20220;-77
2024/01/29 12:10:17;;;;;;;1.60;1.50;;;;;;;;;;5019528;28;20228;-77
2024/01/29 12:12:43;;;;;;;1.80;1.50;;;;;;;;;;4998062;28;20686;-78
2024/01/29 12:15:12;;;;;;;2.67;1.70;;;;;;;;;;4986275;28;20231;-77
2024/01/29 12:17:40;;;;;;;2.63;2.07;;;;;;;;;;5013891;28;20209;-78
2024/01/29 12:20:10;;;;;;;1.80;1.70;;;;;;;;;;4988820;28;20221;-78
2024/01/29 12:22:39;;;;;;;3.73;1.83;;;;;;;;;;4996849;28;20258;-77
2024/01/29 12:25:15;;;;;;;4.40;1.60;;;;;;;;;;4987063;28;20220;-78
2024/01/29 12:27:43;;;;;;;2.57;2.00;;;;;;;;;;5000710;28;20212;-78
2024/01/29 12:30:15;;;;;;;2.37;2.17;;;;;;;;;;4994938;28;20229;-77
2024/01/29 12:32:48;;;;;;;2.83;1.93;;;;;;;;;;4999788;28;20300;-78
2024/01/29 12:35:26;;;;;;;2.10;1.90;;;;;;;;;;5000667;28;20756;-78
2024/01/29 12:37:54;;;;;;;3.30;2.20;;;;;;;;;;5011465;28;20247;-77
2024/01/29 12:40:19;;;;;;;3.60;2.07;;;;;;;;;;5021538;28;20219;-77
2024/01/29 12:42:45;;;;;;;2.60;2.07;;;;;;;;;;4982472;28;20229;-78
2024/01/29 12:45:17;;;;;;;2.50;1.90;;;;;;;;;;5006265;28;20220;-77
2024/01/29 12:47:44;;;;;;;2.23;2.03;;;;;;;;;;4978874;28;20220;-76
2024/01/29 12:50:15;;;;;;;1.97;1.63;;;;;;;;;;4976823;28;20352;-77
2024/01/29 12:52:41;;;;;;;2.40;2.20;;;;;;;;;;4978299;28;20223;-77
2024/01/29 12:55:09;;;;;;;4.00;2.30;;;;;;;;;;5001493;28;20216;-77
2024/01/29 12:57:37;;;;;;;2.07;1.87;;;;;;;;;;5002100;28;20359;-78
2024/01/29 13:00:03;;;;;;;3.17;2.13;;;;;;;;;;5012902;28;20224;-78
2024/01/29 13:02:28;;;;;;;4.27;2.00;;;;;;;;;;4989683;28;20588;-78
2024/01/29 13:04:56;;;;;;;3.57;3.20;;;;;;;;;;5006418;28;20231;-77
2024/01/29 13:07:22;;;;;;;4.07;2.97;;;;;;;;;;4986591;28;20216;-77
2024/01/29 13:09:52;;;;;;;3.43;2.37;;;;;;;;;;5009303;28;20217;-77
2024/01/29 13:12:20;;;;;;;2.90;2.30;;;;;;;;;;4988163;28;20224;-78
2024/01/29 13:14:45;;;;;;;3.50;2.33;;;;;;;;;;4987650;28;20609;-77
2024/01/29 13:17:11;;;;;;;3.07;2.20;;;;;;;;;;4977751;28;20212;-77
2024/01/29 13:19:39;;;;;;;9.50;7.43;;;;;;;;;;5001793;28;20223;-77
2024/01/29 13:22:07;;;;;;;3.80;2.50;;;;;;;;;;5015965;28;20234;-77
2024/01/29 13:24:33;;;;;;;2.50;2.20;;;;;;;;;;5020040;28;20238;-77
2024/01/29 13:26:58;;;;;;;2.87;2.10;;;;;;;;;;5001701;28;20224;-77
2024/01/29 13:29:26;;;;;;;3.17;2.13;;;;;;;;;;4992055;28;20313;-77
2024/01/29 13:31:51;;;;;;;3.47;2.10;;;;;;;;;;4997246;28;20707;-77
2024/01/29 13:34:20;;;;;;;2.67;2.07;;;;;;;;;;4983705;28;20224;-78
2024/01/29 13:36:48;;;;;;;3.07;2.00;;;;;;;;;;4993056;28;20299;-77
2024/01/29 13:39:14;;;;;;;2.20;2.00;;;;;;;;;;4990314;28;20291;-77
2024/01/29 13:41:43;;;;;;;2.20;1.93;;;;;;;;;;5011248;28;20238;-78
2024/01/29 13:44:11;;;;;;;3.50;2.47;;;;;;;;;;4987995;28;20275;-77
2024/01/29 13:46:36;;;;;;;4.67;2.50;;;;;;;;;;5003067;28;20220;-77
2024/01/29 13:49:02;;;;;;;3.90;2.90;;;;;;;;;;4999778;28;20866;-77
2024/01/29 13:51:30;;;;;;;5.87;3.87;;;;;;;;;;4994959;28;20618;-77
2024/01/29 13:53:57;;;;;;;3.50;3.20;;;;;;;;;;5010305;28;20228;-77
2024/01/29 13:56:25;;;;;;;3.80;3.10;;;;;;;;;;5006696;28;20220;-76
2024/01/29 13:58:52;;;;;;;2.33;2.13;;;;;;;;;;5003072;28;20290;-77
2024/01/29 14:01:20;;;;;;;3.67;2.60;;;;;;;;;;5007593;28;20197;-77
2024/01/29 14:03:46;;;;;;;3.47;2.60;;;;;;;;;;5018370;28;20228;-76
2024/01/29 14:06:14;;;;;;;2.47;1.97;;;;;;;;;;5035664;28;20217;-77
2024/01/29 14:08:43;;;;;;;2.83;2.40;;;;;;;;;;4999371;28;20285;-77
2024/01/29 14:11:08;;;;;;;4.00;2.40;;;;;;;;;;5001203;28;20236;-77
2024/01/29 14:13:35;;;;;;;2.60;2.40;;;;;;;;;;4992931;28;20224;-76
2024/01/29 14:16:01;;;;;;;3.40;2.43;;;;;;;;;;4992392;28;20220;-77
2024/01/29 14:18:30;;;;;;;4.03;2.40;;;;;;;;;;4990912;28;20232;-77
2024/01/29 14:20:58;;;;;;;4.73;2.20;;;;;;;;;;4985035;28;20259;-76
2024/01/29 14:23:24;;;;;;;2.73;2.37;;;;;;;;;;4986516;28;20752;-76
2024/01/29 14:25:52;;;;;;;2.63;2.07;;;;;;;;;;4969454;28;20230;-77
2024/01/29 14:28:20;;;;;;;2.77;2.07;;;;;;;;;;5016582;28;20251;-77
2024/01/29 14:30:48;;;;;;;3.00;1.90;;;;;;;;;;4997170;28;20215;-76
2024/01/29 14:33:13;;;;;;;2.33;2.13;;;;;;;;;;5001540;28;20238;-77
2024/01/29 14:35:41;;;;;;;3.27;2.10;;;;;;;;;;4977094;28;20315;-77
2024/01/29 14:38:09;;;;;;;2.67;2.10;;;;;;;;;;4979923;28;20594;-77
2024/01/29 14:40:38;;;;;;;3.37;2.37;;;;;;;;;;4994066;28;20216;-76
2024/01/29 14:43:08;;;;;;;2.63;2.10;;;;;;;;;;4968367;28;20244;-77
2024/01/29 14:45:40;;;;;;;2.30;2.10;;;;;;;;;;5003399;28;20217;-77
2024/01/29 14:48:08;;;;;;;3.93;2.23;;;;;;;;;;4990735;28;20227;-76